createdAt,value
2019-02-20T00:03:09.851Z,1015.8
2019-02-20T00:25:35.045Z,1015.9
2019-02-20T00:48:00.796Z,1015.9
2019-02-20T00:58:20.510Z,1015.9
2019-02-20T01:09:06.406Z,1015.9
2019-02-20T01:19:56.859Z,1016.1
2019-02-20T01:30:13.555Z,1016.1
2019-02-20T01:40:27.954Z,1016.1
2019-02-20T01:50:41.522Z,1016.0
2019-02-20T02:01:02.474Z,1016.0
2019-02-20T02:12:06.911Z,1016.0
2019-02-20T02:22:51.536Z,1016.0
2019-02-20T02:33:05.261Z,1015.9
2019-02-20T02:43:18.390Z,1016.0
2019-02-20T02:54:02.879Z,1015.9
2019-02-20T03:04:48.336Z,1015.9
2019-02-20T03:15:33.503Z,1015.8
2019-02-20T03:25:46.932Z,1015.9
2019-02-20T03:35:59.933Z,1016.0
2019-02-20T03:46:13.483Z,1016.0
2019-02-20T03:56:26.634Z,1016.0
2019-02-20T04:06:40.415Z,1016.1
2019-02-20T04:16:54.044Z,1016.1
2019-02-20T04:27:07.076Z,1016.1
2019-02-20T04:37:20.167Z,1016.1
2019-02-20T04:47:49.114Z,1016.0
2019-02-20T04:58:02.879Z,1016.0
2019-02-20T05:08:15.932Z,1016.0
2019-02-20T05:18:37.959Z,1016.0
2019-02-20T05:28:48.733Z,1016.1
2019-02-20T05:39:18.095Z,1016.1
2019-02-20T05:49:29.145Z,1016.2
2019-02-20T06:00:13.951Z,1016.1
2019-02-20T06:10:29.553Z,1016.3
2019-02-20T06:20:43.270Z,1016.3
2019-02-20T06:30:57.009Z,1016.3
2019-02-20T06:41:42.505Z,1016.5
2019-02-20T06:52:26.998Z,1016.5
2019-02-20T07:02:40.527Z,1016.7
2019-02-20T07:12:53.578Z,1016.7
2019-02-20T07:23:38.627Z,1016.8
2019-02-20T07:34:04.857Z,1016.8
2019-02-20T07:44:13.809Z,1016.9
2019-02-20T07:54:31.290Z,1017.2
2019-02-20T08:04:45.139Z,1017.2
2019-02-20T08:15:36.604Z,1017.3
2019-02-20T08:25:51.211Z,1017.5
2019-02-20T08:36:42.284Z,1017.6
2019-02-20T08:46:56.737Z,1017.6
2019-02-20T08:57:14.345Z,1017.7
2019-02-20T09:08:09.294Z,1017.8
2019-02-20T09:18:57.666Z,1017.8
2019-02-20T09:30:07.822Z,1017.8
2019-02-20T09:40:57.205Z,1017.8
2019-02-20T09:51:11.369Z,1017.9
2019-02-20T10:02:15.478Z,1018.0
2019-02-20T10:12:41.991Z,1018.0
2019-02-20T10:23:07.972Z,1018.0
2019-02-20T10:33:46.734Z,1018.1
2019-02-20T10:43:58.794Z,1018.0
2019-02-20T10:55:02.056Z,1018.1
2019-02-20T11:05:21.443Z,1018.1
2019-02-20T11:15:40.149Z,1017.9
2019-02-20T11:27:09.543Z,1017.9
2019-02-20T11:38:01.126Z,1018.0
2019-02-20T11:48:56.781Z,1018.1
2019-02-20T11:59:45.330Z,1018.2
2019-02-20T12:10:39.555Z,1018.1
2019-02-20T12:21:39.183Z,1018.0
2019-02-20T12:32:19.646Z,1018.1
2019-02-20T12:43:15.681Z,1018.0
2019-02-20T12:54:31.296Z,1018.0
2019-02-20T13:06:08.981Z,1017.9
2019-02-20T13:16:26.558Z,1017.8
2019-02-20T13:26:58.733Z,1017.8
2019-02-20T13:37:31.599Z,1017.8
2019-02-20T13:48:37.056Z,1017.8
2019-02-20T13:58:58.764Z,1017.7
2019-02-20T14:09:12.311Z,1017.7
2019-02-20T14:20:02.878Z,1017.6
2019-02-20T14:30:21.087Z,1017.6
2019-02-20T14:53:54.229Z,1017.7
2019-02-20T15:04:06.039Z,1017.8
2019-02-20T15:17:55.880Z,1017.9
2019-02-20T15:28:42.063Z,1017.8
2019-02-20T15:39:31.659Z,1017.9
2019-02-20T15:50:22.364Z,1017.8
2019-02-20T16:00:39.288Z,1017.9
2019-02-20T16:10:56.604Z,1018.0
2019-02-20T16:21:14.076Z,1018.1
2019-02-20T16:43:54.241Z,1018.2
2019-02-20T16:54:42.544Z,1018.3
2019-02-20T17:05:12.994Z,1018.4
2019-02-20T17:16:50.855Z,1018.5
2019-02-20T17:28:27.277Z,1018.7
2019-02-20T18:08:38.927Z,1018.9
2019-02-20T18:20:13.508Z,1019.0
2019-02-20T18:30:28.050Z,1019.0
2019-02-20T18:40:42.304Z,1018.9
2019-02-20T18:50:55.742Z,1019.0
2019-02-20T19:01:08.693Z,1019.1
2019-02-20T19:12:13.524Z,1019.0
2019-02-20T19:38:05.859Z,1019.1
2019-02-20T20:35:52.164Z,1019.0
2019-02-20T20:46:54.476Z,1019.1
2019-02-20T21:00:07.952Z,1019.2
2019-02-20T21:10:21.859Z,1019.1
2019-02-20T21:21:07.327Z,1019.1
2019-02-20T21:31:53.595Z,1019.1
2019-02-20T21:42:36.945Z,1019.2
2019-02-20T21:53:23.026Z,1019.3
2019-02-20T22:03:37.539Z,1019.2
2019-02-20T22:13:51.419Z,1019.3
2019-02-20T22:27:49.458Z,1019.3
2019-02-20T22:38:14.914Z,1019.4
2019-02-20T22:48:44.397Z,1019.4
2019-02-20T22:58:58.822Z,1019.4
2019-02-20T23:09:10.246Z,1019.6
2019-02-20T23:19:23.470Z,1019.7
2019-02-20T23:30:12.491Z,1019.7
2019-02-20T23:40:32.887Z,1019.7
2019-02-20T23:50:47.039Z,1019.7
